sensor_id;sensor_type;location;lat;lon;timestamp;pressure;altitude;pressure_sealevel;temperature;humidity
28701;BME280;15877;52.344;16.790;2023-08-01T00:00:49;99531.61;;;21.65;67.26
28701;BME280;15877;52.344;16.790;2023-08-01T00:03:31;99531.55;;;21.63;67.37
28701;BME280;15877;52.344;16.790;2023-08-01T00:06:03;99525.05;;;21.59;67.39
28701;BME280;15877;52.344;16.790;2023-08-01T00:08:37;99521.67;;;21.59;67.51
28701;BME280;15877;52.344;16.790;2023-08-01T00:11:09;99516.85;;;21.58;67.31
28701;BME280;15877;52.344;16.790;2023-08-01T00:13:43;99507.60;;;21.60;67.32
28701;BME280;15877;52.344;16.790;2023-08-01T00:16:15;99502.05;;;21.61;67.11
28701;BME280;15877;52.344;16.790;2023-08-01T00:19:01;99494.36;;;21.61;66.99
28701;BME280;15877;52.344;16.790;2023-08-01T00:21:33;99495.17;;;21.66;66.88
28701;BME280;15877;52.344;16.790;2023-08-01T00:24:08;99488.00;;;21.63;66.95
28701;BME280;15877;52.344;16.790;2023-08-01T00:26:39;99477.61;;;21.61;67.18
28701;BME280;15877;52.344;16.790;2023-08-01T00:29:12;99479.20;;;21.61;67.16
28701;BME280;15877;52.344;16.790;2023-08-01T00:31:44;99471.94;;;21.57;66.76
28701;BME280;15877;52.344;16.790;2023-08-01T00:34:17;99473.67;;;21.53;66.69
28701;BME280;15877;52.344;16.790;2023-08-01T00:36:49;99470.82;;;21.54;66.78
28701;BME280;15877;52.344;16.790;2023-08-01T00:39:21;99462.80;;;21.48;66.56
28701;BME280;15877;52.344;16.790;2023-08-01T00:41:53;99457.94;;;21.53;66.58
28701;BME280;15877;52.344;16.790;2023-08-01T00:44:29;99451.85;;;21.54;66.38
28701;BME280;15877;52.344;16.790;2023-08-01T00:47:01;99446.84;;;21.56;66.54
28701;BME280;15877;52.344;16.790;2023-08-01T00:49:34;99440.09;;;21.61;66.20
28701;BME280;15877;52.344;16.790;2023-08-01T00:52:08;99430.89;;;21.62;66.35
28701;BME280;15877;52.344;16.790;2023-08-01T00:54:40;99426.99;;;21.56;66.08
28701;BME280;15877;52.344;16.790;2023-08-01T00:57:13;99424.13;;;21.53;66.35
28701;BME280;15877;52.344;16.790;2023-08-01T00:59:48;99410.27;;;21.49;66.15
28701;BME280;15877;52.344;16.790;2023-08-01T01:02:20;99420.75;;;21.50;66.35
28701;BME280;15877;52.344;16.790;2023-08-01T01:04:53;99420.57;;;21.48;66.56
28701;BME280;15877;52.344;16.790;2023-08-01T01:07:26;99415.08;;;21.53;66.43
28701;BME280;15877;52.344;16.790;2023-08-01T01:10:00;99412.73;;;21.59;66.19
28701;BME280;15877;52.344;16.790;2023-08-01T01:12:32;99402.47;;;21.55;66.04
28701;BME280;15877;52.344;16.790;2023-08-01T01:15:06;99396.80;;;21.49;66.25
28701;BME280;15877;52.344;16.790;2023-08-01T01:17:39;99384.92;;;21.39;66.24
28701;BME280;15877;52.344;16.790;2023-08-01T01:20:14;99393.73;;;21.41;66.28
28701;BME280;15877;52.344;16.790;2023-08-01T01:22:47;99388.59;;;21.51;66.11
28701;BME280;15877;52.344;16.790;2023-08-01T01:25:20;99386.30;;;21.41;65.97
28701;BME280;15877;52.344;16.790;2023-08-01T01:27:55;99381.83;;;21.46;66.23
28701;BME280;15877;52.344;16.790;2023-08-01T01:30:29;99378.95;;;21.43;66.30
28701;BME280;15877;52.344;16.790;2023-08-01T01:33:05;99377.88;;;21.38;66.61
28701;BME280;15877;52.344;16.790;2023-08-01T01:35:40;99369.00;;;21.50;66.16
28701;BME280;15877;52.344;16.790;2023-08-01T01:38:12;99362.02;;;21.51;66.07
28701;BME280;15877;52.344;16.790;2023-08-01T01:40:45;99355.17;;;21.44;66.51
28701;BME280;15877;52.344;16.790;2023-08-01T01:43:17;99350.73;;;21.46;66.31
28701;BME280;15877;52.344;16.790;2023-08-01T01:45:50;99343.89;;;21.44;66.29
28701;BME280;15877;52.344;16.790;2023-08-01T01:48:24;99338.65;;;21.50;66.10
28701;BME280;15877;52.344;16.790;2023-08-01T01:50:57;99330.96;;;21.48;66.03
28701;BME280;15877;52.344;16.790;2023-08-01T01:53:30;99327.61;;;21.49;65.81
28701;BME280;15877;52.344;16.790;2023-08-01T01:56:02;99316.09;;;21.51;65.99
28701;BME280;15877;52.344;16.790;2023-08-01T01:58:35;99316.75;;;21.52;66.15
28701;BME280;15877;52.344;16.790;2023-08-01T02:01:07;99313.83;;;21.52;65.76
28701;BME280;15877;52.344;16.790;2023-08-01T02:03:40;99318.70;;;21.48;65.93
28701;BME280;15877;52.344;16.790;2023-08-01T02:06:14;99311.56;;;21.51;65.95
28701;BME280;15877;52.344;16.790;2023-08-01T02:08:47;99309.23;;;21.47;66.13
28701;BME280;15877;52.344;16.790;2023-08-01T02:11:20;99308.81;;;21.45;66.43
28701;BME280;15877;52.344;16.790;2023-08-01T02:13:52;99295.61;;;21.42;66.19
28701;BME280;15877;52.344;16.790;2023-08-01T02:16:25;99308.80;;;21.42;66.49
28701;BME280;15877;52.344;16.790;2023-08-01T02:18:58;99305.91;;;21.43;66.43
28701;BME280;15877;52.344;16.790;2023-08-01T02:21:30;99303.02;;;21.41;67.12
28701;BME280;15877;52.344;16.790;2023-08-01T02:24:03;99297.21;;;21.41;67.11
28701;BME280;15877;52.344;16.790;2023-08-01T02:26:35;99296.34;;;21.42;67.08
28701;BME280;15877;52.344;16.790;2023-08-01T02:29:08;99291.91;;;21.34;67.31
28701;BME280;15877;52.344;16.790;2023-08-01T02:31:41;99295.66;;;21.31;67.72
28701;BME280;15877;52.344;16.790;2023-08-01T02:34:13;99290.65;;;21.35;67.63
28701;BME280;15877;52.344;16.790;2023-08-01T02:36:46;99279.85;;;21.27;67.80
28701;BME280;15877;52.344;16.790;2023-08-01T02:39:18;99284.21;;;21.20;68.37
28701;BME280;15877;52.344;16.790;2023-08-01T02:41:50;99287.84;;;21.23;68.35
28701;BME280;15877;52.344;16.790;2023-08-01T02:44:22;99285.91;;;21.19;68.58
28701;BME280;15877;52.344;16.790;2023-08-01T02:46:55;99284.77;;;21.14;68.89
28701;BME280;15877;52.344;16.790;2023-08-01T02:49:29;99282.11;;;21.08;68.91
28701;BME280;15877;52.344;16.790;2023-08-01T02:52:01;99283.61;;;21.09;68.98
28701;BME280;15877;52.344;16.790;2023-08-01T02:54:33;99283.54;;;20.98;69.39
28701;BME280;15877;52.344;16.790;2023-08-01T02:57:05;99274.75;;;21.07;68.99
28701;BME280;15877;52.344;16.790;2023-08-01T02:59:38;99267.27;;;21.10;68.71
28701;BME280;15877;52.344;16.790;2023-08-01T03:02:10;99265.98;;;21.16;68.65
28701;BME280;15877;52.344;16.790;2023-08-01T03:04:42;99268.08;;;21.14;68.80
28701;BME280;15877;52.344;16.790;2023-08-01T03:07:17;99265.15;;;21.13;69.11
28701;BME280;15877;52.344;16.790;2023-08-01T03:09:50;99248.02;;;21.05;69.14
28701;BME280;15877;52.344;16.790;2023-08-01T03:12:23;99259.63;;;21.13;69.28
28701;BME280;15877;52.344;16.790;2023-08-01T03:14:58;99256.65;;;21.17;69.31
28701;BME280;15877;52.344;16.790;2023-08-01T03:17:31;99253.61;;;21.13;69.67
28701;BME280;15877;52.344;16.790;2023-08-01T03:20:04;99251.54;;;21.10;70.35
28701;BME280;15877;52.344;16.790;2023-08-01T03:22:36;99246.55;;;21.00;70.84
28701;BME280;15877;52.344;16.790;2023-08-01T03:25:09;99246.34;;;21.07;70.52
28701;BME280;15877;52.344;16.790;2023-08-01T03:27:42;99252.21;;;21.15;70.21
28701;BME280;15877;52.344;16.790;2023-08-01T03:30:16;99247.92;;;21.05;70.79
28701;BME280;15877;52.344;16.790;2023-08-01T03:32:51;99248.98;;;20.94;71.36
28701;BME280;15877;52.344;16.790;2023-08-01T03:35:27;99242.36;;;20.99;71.49
28701;BME280;15877;52.344;16.790;2023-08-01T03:38:01;99240.66;;;20.84;72.05
28701;BME280;15877;52.344;16.790;2023-08-01T03:40:33;99240.34;;;20.68;73.02
28701;BME280;15877;52.344;16.790;2023-08-01T03:43:06;99245.81;;;20.80;72.80
28701;BME280;15877;52.344;16.790;2023-08-01T03:45:40;99242.89;;;20.81;73.17
28701;BME280;15877;52.344;16.790;2023-08-01T03:48:13;99243.27;;;20.80;73.96
28701;BME280;15877;52.344;16.790;2023-08-01T03:50:45;99246.15;;;20.74;74.39
28701;BME280;15877;52.344;16.790;2023-08-01T03:53:18;99241.30;;;20.76;74.38
28701;BME280;15877;52.344;16.790;2023-08-01T03:55:51;99242.19;;;20.68;75.14
28701;BME280;15877;52.344;16.790;2023-08-01T03:58:27;99239.23;;;20.63;76.12
28701;BME280;15877;52.344;16.790;2023-08-01T04:00:59;99239.40;;;20.56;76.71
28701;BME280;15877;52.344;16.790;2023-08-01T04:03:32;99241.29;;;20.66;76.13
28701;BME280;15877;52.344;16.790;2023-08-01T04:06:05;99235.67;;;20.65;76.52
28701;BME280;15877;52.344;16.790;2023-08-01T04:08:39;99237.63;;;20.63;76.96
28701;BME280;15877;52.344;16.790;2023-08-01T04:11:17;99233.05;;;20.47;78.09
28701;BME280;15877;52.344;16.790;2023-08-01T04:13:50;99234.38;;;20.53;77.90
28701;BME280;15877;52.344;16.790;2023-08-01T04:16:23;99228.79;;;20.47;78.68
28701;BME280;15877;52.344;16.790;2023-08-01T04:18:55;99227.98;;;20.47;78.80
28701;BME280;15877;52.344;16.790;2023-08-01T04:21:28;99214.77;;;20.40;79.09
28701;BME280;15877;52.344;16.790;2023-08-01T04:24:01;99218.70;;;20.47;79.02
28701;BME280;15877;52.344;16.790;2023-08-01T04:26:33;99213.45;;;20.45;79.46
28701;BME280;15877;52.344;16.790;2023-08-01T04:29:10;99213.19;;;20.48;79.24
28701;BME280;15877;52.344;16.790;2023-08-01T04:31:46;99211.39;;;20.49;79.43
28701;BME280;15877;52.344;16.790;2023-08-01T04:34:19;99214.66;;;20.47;79.79
28701;BME280;15877;52.344;16.790;2023-08-01T04:36:52;99207.35;;;20.44;80.14
28701;BME280;15877;52.344;16.790;2023-08-01T04:39:25;99205.60;;;20.44;80.59
28701;BME280;15877;52.344;16.790;2023-08-01T04:41:57;99199.71;;;20.44;81.29
28701;BME280;15877;52.344;16.790;2023-08-01T04:44:29;99202.48;;;20.46;81.25
28701;BME280;15877;52.344;16.790;2023-08-01T04:47:01;99199.15;;;20.48;80.90
28701;BME280;15877;52.344;16.790;2023-08-01T04:49:34;99188.97;;;20.47;81.27
28701;BME280;15877;52.344;16.790;2023-08-01T04:52:08;99189.64;;;20.44;81.95
28701;BME280;15877;52.344;16.790;2023-08-01T04:54:43;99187.92;;;20.47;81.87
28701;BME280;15877;52.344;16.790;2023-08-01T04:57:15;99177.86;;;20.43;82.44
28701;BME280;15877;52.344;16.790;2023-08-01T04:59:48;99169.67;;;20.43;82.34
28701;BME280;15877;52.344;16.790;2023-08-01T05:02:20;99164.54;;;20.49;81.73
28701;BME280;15877;52.344;16.790;2023-08-01T05:04:56;99164.94;;;20.47;82.39
28701;BME280;15877;52.344;16.790;2023-08-01T05:07:30;99158.04;;;20.33;83.05
28701;BME280;15877;52.344;16.790;2023-08-01T05:10:02;99165.27;;;20.41;83.26
28701;BME280;15877;52.344;16.790;2023-08-01T05:12:35;99165.85;;;20.47;82.76
28701;BME280;15877;52.344;16.790;2023-08-01T05:15:09;99159.69;;;20.48;82.94
28701;BME280;15877;52.344;16.790;2023-08-01T05:17:44;99152.70;;;20.45;82.70
28701;BME280;15877;52.344;16.790;2023-08-01T05:20:17;99153.27;;;20.46;83.07
28701;BME280;15877;52.344;16.790;2023-08-01T05:22:49;99157.20;;;20.47;83.46
28701;BME280;15877;52.344;16.790;2023-08-01T05:25:24;99154.39;;;20.45;83.85
28701;BME280;15877;52.344;16.790;2023-08-01T05:27:57;99145.73;;;20.42;84.18
28701;BME280;15877;52.344;16.790;2023-08-01T05:30:29;99144.77;;;20.45;83.82
28701;BME280;15877;52.344;16.790;2023-08-01T05:33:02;99133.17;;;20.45;82.78
28701;BME280;15877;52.344;16.790;2023-08-01T05:35:34;99146.45;;;20.54;82.70
28701;BME280;15877;52.344;16.790;2023-08-01T05:38:07;99135.46;;;20.36;84.07
28701;BME280;15877;52.344;16.790;2023-08-01T05:40:40;99136.90;;;20.34;84.25
28701;BME280;15877;52.344;16.790;2023-08-01T05:43:14;99138.27;;;20.34;84.28
28701;BME280;15877;52.344;16.790;2023-08-01T05:45:47;99133.44;;;20.17;85.31
28701;BME280;15877;52.344;16.790;2023-08-01T05:48:24;99132.27;;;20.25;85.60
28701;BME280;15877;52.344;16.790;2023-08-01T05:50:57;99131.60;;;20.25;86.22
28701;BME280;15877;52.344;16.790;2023-08-01T05:53:30;99132.05;;;20.35;85.49
28701;BME280;15877;52.344;16.790;2023-08-01T05:56:03;99115.92;;;20.35;84.84
28701;BME280;15877;52.344;16.790;2023-08-01T05:58:36;99128.05;;;20.36;85.36
28701;BME280;15877;52.344;16.790;2023-08-01T06:01:09;99123.06;;;20.33;85.55
28701;BME280;15877;52.344;16.790;2023-08-01T06:03:42;99125.44;;;20.30;85.60
28701;BME280;15877;52.344;16.790;2023-08-01T06:06:15;99121.16;;;20.24;86.06
28701;BME280;15877;52.344;16.790;2023-08-01T06:08:48;99125.71;;;20.24;86.41
28701;BME280;15877;52.344;16.790;2023-08-01T06:11:22;99114.06;;;20.16;87.29
28701;BME280;15877;52.344;16.790;2023-08-01T06:13:54;99114.25;;;20.30;86.35
28701;BME280;15877;52.344;16.790;2023-08-01T06:16:26;99105.95;;;20.37;86.23
28701;BME280;15877;52.344;16.790;2023-08-01T06:18:59;99105.02;;;20.29;87.17
28701;BME280;15877;52.344;16.790;2023-08-01T06:21:31;99100.13;;;20.31;87.34
28701;BME280;15877;52.344;16.790;2023-08-01T06:24:04;99100.75;;;20.42;86.88
28701;BME280;15877;52.344;16.790;2023-08-01T06:26:36;99096.39;;;20.44;86.17
28701;BME280;15877;52.344;16.790;2023-08-01T06:29:09;99104.14;;;20.38;86.75
28701;BME280;15877;52.344;16.790;2023-08-01T06:31:41;99093.67;;;20.31;86.53
28701;BME280;15877;52.344;16.790;2023-08-01T06:34:13;99099.17;;;20.30;86.52
28701;BME280;15877;52.344;16.790;2023-08-01T06:36:46;99096.34;;;20.27;86.68
28701;BME280;15877;52.344;16.790;2023-08-01T06:39:19;99087.90;;;20.38;86.10
28701;BME280;15877;52.344;16.790;2023-08-01T06:41:51;99085.83;;;20.44;85.91
28701;BME280;15877;52.344;16.790;2023-08-01T06:44:23;99084.80;;;20.52;85.71
28701;BME280;15877;52.344;16.790;2023-08-01T06:46:56;99081.89;;;20.34;87.17
28701;BME280;15877;52.344;16.790;2023-08-01T06:49:28;99073.15;;;20.47;86.62
28701;BME280;15877;52.344;16.790;2023-08-01T06:52:00;99072.08;;;20.43;87.31
28701;BME280;15877;52.344;16.790;2023-08-01T06:54:33;99064.83;;;20.49;86.89
28701;BME280;15877;52.344;16.790;2023-08-01T06:57:09;99063.54;;;20.47;86.44
28701;BME280;15877;52.344;16.790;2023-08-01T06:59:41;99061.10;;;20.58;86.56
28701;BME280;15877;52.344;16.790;2023-08-01T07:02:13;99064.17;;;20.69;85.76
28701;BME280;15877;52.344;16.790;2023-08-01T07:04:46;99061.59;;;20.83;85.62
28701;BME280;15877;52.344;16.790;2023-08-01T07:07:18;99062.16;;;20.85;86.68
28701;BME280;15877;52.344;16.790;2023-08-01T07:09:51;99065.61;;;20.83;86.47
28701;BME280;15877;52.344;16.790;2023-08-01T07:12:23;99061.46;;;20.92;85.59
28701;BME280;15877;52.344;16.790;2023-08-01T07:14:55;99056.84;;;21.03;84.79
28701;BME280;15877;52.344;16.790;2023-08-01T07:17:31;99055.69;;;20.91;84.57
28701;BME280;15877;52.344;16.790;2023-08-01T07:20:05;99053.81;;;20.90;84.48
28701;BME280;15877;52.344;16.790;2023-08-01T07:22:37;99051.14;;;20.90;83.86
28701;BME280;15877;52.344;16.790;2023-08-01T07:25:10;99042.05;;;20.91;84.22
28701;BME280;15877;52.344;16.790;2023-08-01T07:27:43;99041.43;;;20.94;85.12
28701;BME280;15877;52.344;16.790;2023-08-01T07:30:16;99034.13;;;20.96;84.49
28701;BME280;15877;52.344;16.790;2023-08-01T07:32:48;99034.66;;;21.02;84.38
28701;BME280;15877;52.344;16.790;2023-08-01T07:35:20;99023.67;;;21.05;83.59
28701;BME280;15877;52.344;16.790;2023-08-01T07:37:53;99039.39;;;21.16;84.40
28701;BME280;15877;52.344;16.790;2023-08-01T07:40:25;99036.89;;;21.22;84.51
28701;BME280;15877;52.344;16.790;2023-08-01T07:42:58;99026.66;;;21.30;83.20
28701;BME280;15877;52.344;16.790;2023-08-01T07:45:33;99030.81;;;21.30;83.38
28701;BME280;15877;52.344;16.790;2023-08-01T07:48:06;99031.73;;;21.33;82.94
28701;BME280;15877;52.344;16.790;2023-08-01T07:50:39;99026.30;;;21.15;82.49
28701;BME280;15877;52.344;16.790;2023-08-01T07:53:11;99027.67;;;21.09;82.99
28701;BME280;15877;52.344;16.790;2023-08-01T07:55:43;99027.08;;;21.25;83.06
28701;BME280;15877;52.344;16.790;2023-08-01T07:58:16;99025.84;;;21.31;82.30
28701;BME280;15877;52.344;16.790;2023-08-01T08:00:48;99020.38;;;21.30;82.20
28701;BME280;15877;52.344;16.790;2023-08-01T08:03:20;99019.63;;;21.38;82.29
28701;BME280;15877;52.344;16.790;2023-08-01T08:05:54;98992.48;;;21.17;82.17
28701;BME280;15877;52.344;16.790;2023-08-01T08:08:27;99010.41;;;21.33;82.43
28701;BME280;15877;52.344;16.790;2023-08-01T08:10:59;99007.84;;;21.45;81.98
28701;BME280;15877;52.344;16.790;2023-08-01T08:13:32;99007.67;;;21.40;81.04
28701;BME280;15877;52.344;16.790;2023-08-01T08:16:04;99005.08;;;21.40;81.05
28701;BME280;15877;52.344;16.790;2023-08-01T08:18:36;98998.82;;;21.38;81.66
28701;BME280;15877;52.344;16.790;2023-08-01T08:21:09;98999.42;;;21.31;82.48
28701;BME280;15877;52.344;16.790;2023-08-01T08:23:41;98994.04;;;21.41;81.78
28701;BME280;15877;52.344;16.790;2023-08-01T08:26:13;98992.66;;;21.43;81.33
28701;BME280;15877;52.344;16.790;2023-08-01T08:28:46;98982.71;;;21.44;81.43
28701;BME280;15877;52.344;16.790;2023-08-01T08:31:18;98987.10;;;21.48;81.20
28701;BME280;15877;52.344;16.790;2023-08-01T08:33:51;98984.38;;;21.44;81.64
28701;BME280;15877;52.344;16.790;2023-08-01T08:36:23;98980.67;;;21.41;81.50
28701;BME280;15877;52.344;16.790;2023-08-01T08:38:56;98980.86;;;21.40;81.46
28701;BME280;15877;52.344;16.790;2023-08-01T08:41:33;98979.73;;;21.42;81.69
28701;BME280;15877;52.344;16.790;2023-08-01T08:44:08;98979.52;;;21.34;81.64
28701;BME280;15877;52.344;16.790;2023-08-01T08:46:43;98974.99;;;21.31;82.02
28701;BME280;15877;52.344;16.790;2023-08-01T08:49:16;98972.73;;;21.34;82.25
28701;BME280;15877;52.344;16.790;2023-08-01T08:51:50;98971.54;;;21.34;81.67
28701;BME280;15877;52.344;16.790;2023-08-01T08:54:23;98964.70;;;21.35;81.25
28701;BME280;15877;52.344;16.790;2023-08-01T08:56:55;98968.00;;;21.32;81.36
28701;BME280;15877;52.344;16.790;2023-08-01T08:59:28;98963.36;;;21.35;80.28
28701;BME280;15877;52.344;16.790;2023-08-01T09:02:03;98952.14;;;21.24;80.48
28701;BME280;15877;52.344;16.790;2023-08-01T09:04:35;98959.33;;;21.23;81.08
28701;BME280;15877;52.344;16.790;2023-08-01T09:07:10;98953.04;;;21.26;81.93
28701;BME280;15877;52.344;16.790;2023-08-01T09:09:41;98949.05;;;21.26;81.64
28701;BME280;15877;52.344;16.790;2023-08-01T09:12:13;98946.14;;;21.21;81.65
28701;BME280;15877;52.344;16.790;2023-08-01T09:14:46;98943.55;;;21.21;81.88
28701;BME280;15877;52.344;16.790;2023-08-01T09:17:21;98929.15;;;21.11;82.09
28701;BME280;15877;52.344;16.790;2023-08-01T09:20:04;98940.30;;;21.16;82.53
28701;BME280;15877;52.344;16.790;2023-08-01T09:22:44;98940.67;;;21.17;83.75
28701;BME280;15877;52.344;16.790;2023-08-01T09:25:17;98941.92;;;21.13;84.95
28701;BME280;15877;52.344;16.790;2023-08-01T09:27:49;98941.89;;;20.93;86.66
28701;BME280;15877;52.344;16.790;2023-08-01T09:30:21;98942.74;;;20.92;87.83
28701;BME280;15877;52.344;16.790;2023-08-01T09:32:54;98942.28;;;20.97;87.91
28701;BME280;15877;52.344;16.790;2023-08-01T09:35:27;98942.73;;;20.96;87.94
28701;BME280;15877;52.344;16.790;2023-08-01T09:38:01;98939.27;;;20.92;88.08
28701;BME280;15877;52.344;16.790;2023-08-01T09:40:38;98937.95;;;20.94;88.54
28701;BME280;15877;52.344;16.790;2023-08-01T09:43:11;98933.64;;;20.86;89.40
28701;BME280;15877;52.344;16.790;2023-08-01T09:45:53;98932.73;;;20.86;89.47
28701;BME280;15877;52.344;16.790;2023-08-01T09:48:28;98931.20;;;20.88;89.76
28701;BME280;15877;52.344;16.790;2023-08-01T09:51:08;98924.83;;;20.77;89.90
28701;BME280;15877;52.344;16.790;2023-08-01T09:53:50;98924.39;;;20.70;90.43
28701;BME280;15877;52.344;16.790;2023-08-01T09:56:26;98921.67;;;20.75;89.86
28701;BME280;15877;52.344;16.790;2023-08-01T09:59:01;98918.34;;;20.67;90.23
28701;BME280;15877;52.344;16.790;2023-08-01T10:01:34;98911.42;;;20.55;92.14
28701;BME280;15877;52.344;16.790;2023-08-01T10:04:08;98911.19;;;20.45;92.90
28701;BME280;15877;52.344;16.790;2023-08-01T10:06:45;98910.17;;;20.39;93.94
28701;BME280;15877;52.344;16.790;2023-08-01T10:09:19;98906.48;;;20.59;92.46
28701;BME280;15877;52.344;16.790;2023-08-01T10:11:52;98905.77;;;20.63;92.55
28701;BME280;15877;52.344;16.790;2023-08-01T10:14:24;98899.09;;;20.70;91.96
28701;BME280;15877;52.344;16.790;2023-08-01T10:16:57;98892.25;;;20.57;93.51
28701;BME280;15877;52.344;16.790;2023-08-01T10:19:32;98888.30;;;20.57;94.41
28701;BME280;15877;52.344;16.790;2023-08-01T10:22:07;98885.61;;;20.65;93.82
28701;BME280;15877;52.344;16.790;2023-08-01T10:24:42;98879.11;;;20.68;93.27
28701;BME280;15877;52.344;16.790;2023-08-01T10:27:18;98871.83;;;20.67;93.59
28701;BME280;15877;52.344;16.790;2023-08-01T10:30:02;98870.62;;;20.68;93.70
28701;BME280;15877;52.344;16.790;2023-08-01T10:32:36;98865.66;;;20.67;94.17
28701;BME280;15877;52.344;16.790;2023-08-01T10:35:09;98860.54;;;20.83;92.52
28701;BME280;15877;52.344;16.790;2023-08-01T10:37:43;98853.36;;;20.83;92.83
28701;BME280;15877;52.344;16.790;2023-08-01T10:40:18;98854.95;;;20.84;93.15
28701;BME280;15877;52.344;16.790;2023-08-01T10:42:50;98852.88;;;20.92;93.35
28701;BME280;15877;52.344;16.790;2023-08-01T10:45:24;98847.91;;;20.93;93.79
28701;BME280;15877;52.344;16.790;2023-08-01T10:48:10;98843.92;;;21.03;93.18
28701;BME280;15877;52.344;16.790;2023-08-01T10:50:53;98841.04;;;21.08;94.09
28701;BME280;15877;52.344;16.790;2023-08-01T10:53:25;98838.98;;;21.22;94.01
28701;BME280;15877;52.344;16.790;2023-08-01T10:55:58;98838.50;;;21.31;94.78
28701;BME280;15877;52.344;16.790;2023-08-01T10:58:30;98834.40;;;21.39;95.29
28701;BME280;15877;52.344;16.790;2023-08-01T11:01:02;98832.77;;;21.50;92.78
28701;BME280;15877;52.344;16.790;2023-08-01T11:03:39;98830.31;;;21.57;92.04
28701;BME280;15877;52.344;16.790;2023-08-01T11:06:13;98826.37;;;21.57;92.09
28701;BME280;15877;52.344;16.790;2023-08-01T11:08:45;98821.66;;;21.58;91.84
28701;BME280;15877;52.344;16.790;2023-08-01T11:11:17;98819.30;;;21.58;91.97
28701;BME280;15877;52.344;16.790;2023-08-01T11:13:53;98816.37;;;21.60;92.47
28701;BME280;15877;52.344;16.790;2023-08-01T11:16:27;98811.87;;;21.54;92.95
28701;BME280;15877;52.344;16.790;2023-08-01T11:19:00;98805.61;;;21.57;91.39
28701;BME280;15877;52.344;16.790;2023-08-01T11:21:32;98800.41;;;21.53;91.41
28701;BME280;15877;52.344;16.790;2023-08-01T11:24:08;98798.31;;;21.53;90.87
28701;BME280;15877;52.344;16.790;2023-08-01T11:26:43;98792.34;;;21.54;90.60
28701;BME280;15877;52.344;16.790;2023-08-01T11:29:14;98785.30;;;21.54;90.53
28701;BME280;15877;52.344;16.790;2023-08-01T11:31:55;98784.09;;;21.55;90.68
28701;BME280;15877;52.344;16.790;2023-08-01T11:34:28;98815.75;;;21.59;89.21
28701;BME280;15877;52.344;16.790;2023-08-01T11:37:00;98835.30;;;21.57;89.45
28701;BME280;15877;52.344;16.790;2023-08-01T11:39:33;98842.51;;;21.35;87.48
28701;BME280;15877;52.344;16.790;2023-08-01T11:42:06;98840.63;;;21.20;86.09
28701;BME280;15877;52.344;16.790;2023-08-01T11:44:39;98838.08;;;20.88;86.52
28701;BME280;15877;52.344;16.790;2023-08-01T11:47:14;98837.41;;;20.93;87.02
28701;BME280;15877;52.344;16.790;2023-08-01T11:49:50;98830.33;;;20.93;87.62
28701;BME280;15877;52.344;16.790;2023-08-01T11:52:26;98829.02;;;20.96;87.29
28701;BME280;15877;52.344;16.790;2023-08-01T11:54:59;98819.21;;;21.00;86.65
28701;BME280;15877;52.344;16.790;2023-08-01T11:57:31;98819.20;;;21.02;86.61
28701;BME280;15877;52.344;16.790;2023-08-01T12:00:05;98817.80;;;20.95;87.11
28701;BME280;15877;52.344;16.790;2023-08-01T12:02:41;98822.42;;;20.79;88.86
28701;BME280;15877;52.344;16.790;2023-08-01T12:05:22;98816.02;;;20.92;88.53
28701;BME280;15877;52.344;16.790;2023-08-01T12:07:55;98814.30;;;20.96;88.59
28701;BME280;15877;52.344;16.790;2023-08-01T12:10:38;98815.91;;;20.77;91.27
28701;BME280;15877;52.344;16.790;2023-08-01T12:13:22;98812.67;;;20.84;91.12
28701;BME280;15877;52.344;16.790;2023-08-01T12:15:55;98814.27;;;20.93;90.79
28701;BME280;15877;52.344;16.790;2023-08-01T12:18:29;98813.55;;;21.00;90.96
28701;BME280;15877;52.344;16.790;2023-08-01T12:21:05;98818.56;;;20.95;93.78
28701;BME280;15877;52.344;16.790;2023-08-01T12:23:37;98817.50;;;20.93;96.41
28701;BME280;15877;52.344;16.790;2023-08-01T12:26:09;98824.13;;;21.19;96.04
28701;BME280;15877;52.344;16.790;2023-08-01T12:28:41;98821.68;;;21.57;96.18
28701;BME280;15877;52.344;16.790;2023-08-01T12:31:17;98822.88;;;21.91;96.39
28701;BME280;15877;52.344;16.790;2023-08-01T12:33:50;98836.40;;;21.72;94.77
28701;BME280;15877;52.344;16.790;2023-08-01T12:36:24;98838.90;;;21.73;94.11
28701;BME280;15877;52.344;16.790;2023-08-01T12:38:56;98838.66;;;21.62;95.00
28701;BME280;15877;52.344;16.790;2023-08-01T12:41:28;98830.09;;;21.89;93.90
28701;BME280;15877;52.344;16.790;2023-08-01T12:44:01;98818.44;;;22.06;94.74
28701;BME280;15877;52.344;16.790;2023-08-01T12:46:34;98817.91;;;22.10;94.20
28701;BME280;15877;52.344;16.790;2023-08-01T12:49:06;98809.48;;;22.21;90.37
28701;BME280;15877;52.344;16.790;2023-08-01T12:51:39;98793.57;;;22.18;90.59
28701;BME280;15877;52.344;16.790;2023-08-01T12:54:11;98799.82;;;22.31;91.12
28701;BME280;15877;52.344;16.790;2023-08-01T12:56:44;98806.70;;;22.52;89.68
28701;BME280;15877;52.344;16.790;2023-08-01T12:59:16;98814.98;;;22.60;91.78
28701;BME280;15877;52.344;16.790;2023-08-01T13:01:49;98826.41;;;22.67;90.37
28701;BME280;15877;52.344;16.790;2023-08-01T13:04:21;98839.64;;;22.69;88.22
28701;BME280;15877;52.344;16.790;2023-08-01T13:06:53;98848.23;;;22.84;85.50
28701;BME280;15877;52.344;16.790;2023-08-01T13:09:25;98850.30;;;22.77;86.05
28701;BME280;15877;52.344;16.790;2023-08-01T13:11:58;98849.79;;;22.72;85.85
28701;BME280;15877;52.344;16.790;2023-08-01T13:14:31;98854.91;;;22.68;84.80
28701;BME280;15877;52.344;16.790;2023-08-01T13:17:04;98845.85;;;22.47;83.75
28701;BME280;15877;52.344;16.790;2023-08-01T13:19:36;98849.02;;;22.34;84.63
28701;BME280;15877;52.344;16.790;2023-08-01T13:22:08;98862.90;;;22.44;86.40